MST,Max TemperatureF,Mean TemperatureF,Min TemperatureF,Max Dew PointF,MeanDew PointF,Min DewpointF,Max Humidity, Mean Humidity, Min Humidity, Max Sea Level PressureIn, Mean Sea Level PressureIn, Min Sea Level PressureIn, Max VisibilityMiles, Mean VisibilityMiles, Min VisibilityMiles, Max Wind SpeedMPH, Mean Wind SpeedMPH, Max Gust SpeedMPH,PrecipitationIn, CloudCover, Events, WindDirDegrees
2011-11-1,80,60,41,32,27,23,57,32,13,30.07,30.01,29.91,10,10,10,16,5,21,0.00,0,,178
2011-11-2,66,55,44,27,15,1,37,20,8,30.31,30.12,29.93,10,10,6,32,13,43,0.00,0,,334
2011-11-3,59,42,26,19,17,16,69,39,19,30.44,30.34,30.20,10,10,10,12,6,,0.00,0,,308
2011-11-4,71,52,32,30,23,16,60,37,19,30.18,30.01,29.79,10,10,10,14,5,17,0.00,0,,151
2011-11-5,66,58,48,39,28,19,51,31,19,29.93,29.82,29.74,10,10,5,28,16,38,0.00,3,,206
2011-11-6,62,50,39,32,29,23,65,44,32,30.04,29.98,29.95,10,10,9,15,5,20,0.00,2,,138
2011-11-7,64,50,37,36,30,19,81,47,22,29.99,29.92,29.86,10,10,5,24,7,33,0.00,2,,192
2011-11-8,55,40,26,23,19,18,69,42,24,30.20,30.11,30.01,10,10,10,15,5,22,0.00,0,,349
2011-11-9,57,44,32,23,20,18,64,45,25,30.45,30.36,30.26,10,10,10,12,3,,0.00,0,,206
2011-11-10,55,40,26,21,19,12,74,44,19,30.53,30.43,30.30,10,10,10,9,5,,0.00,0,,300
2011-11-11,57,42,28,19,15,9,64,35,20,30.26,30.15,30.04,10,10,10,8,3,,0.00,0,,164
2011-11-12,68,57,46,25,21,18,43,24,18,30.01,29.98,29.93,10,10,10,13,6,18,0.00,2,,178
2011-11-13,66,58,51,48,40,36,67,49,40,30.01,29.96,29.89,10,10,3,13,8,18,0.00,7,,182
2011-11-14,64,58,50,48,44,39,82,63,42,29.98,29.91,29.84,10,10,9,17,9,22,0.00,4,Thunderstorm,175
2011-11-15,64,52,41,37,29,21,76,44,19,30.00,29.93,29.90,10,10,10,13,6,,0.00,0,,354
2011-11-16,66,50,35,34,26,18,81,42,18,30.21,30.10,29.97,10,10,10,17,6,22,0.00,0,,12
2011-11-17,62,47,32,28,22,18,69,40,26,30.33,30.22,30.08,10,10,10,10,4,,0.00,0,,256
2011-11-18,68,50,32,32,27,23,75,45,19,30.03,29.97,29.87,10,10,9,16,4,22,0.00,0,,185
2011-11-19,66,55,44,27,22,14,46,28,13,29.99,29.94,29.90,10,10,10,14,10,20,0.00,0,,167
2011-11-20,69,55,41,32,25,16,46,32,22,30.10,30.04,29.99,10,10,10,15,5,24,0.00,0,,173
2011-11-21,64,54,44,45,31,21,87,46,27,30.08,30.02,29.98,10,10,3,30,5,45,0.02,2,Rain-Thunderstorm,8
2011-11-22,62,52,42,37,31,27,76,48,26,30.29,30.23,30.16,10,10,10,20,12,28,0.00,0,,354
2011-11-23,64,47,30,28,25,18,75,50,24,30.34,30.27,30.20,10,10,10,12,4,16,0.00,0,,139
2011-11-24,68,49,30,27,23,19,69,41,20,30.21,30.14,30.04,10,10,10,10,4,,0.00,0,,152
2011-11-25,57,49,41,50,43,36,100,77,54,30.03,29.97,29.89,10,10,5,18,7,23,0.14,4,Rain-Thunderstorm,21
2011-11-26,55,46,37,32,23,18,75,40,26,30.46,30.27,30.04,10,10,10,22,12,32,0.00,0,,353
2011-11-27,51,38,24,23,17,7,80,46,24,30.58,30.49,30.40,10,10,10,9,5,,0.00,0,,82
2011-11-28,62,43,24,25,21,18,80,49,18,30.36,30.26,30.15,10,10,9,14,5,16,0.00,0,,71
2011-11-29,60,43,26,27,22,19,80,49,22,30.31,30.23,30.19,10,10,10,14,5,16,0.00,0,,164
2011-11-30,62,45,28,25,22,18,80,46,19,30.27,30.11,29.91,10,10,10,13,5,,0.00,0,,207